Fayette City, PA

7:48 PM EST on February 05, 2016 (GMT -0500)
Belle Vernon | | Change Station
CLOSE
Current Station
Personal Weather Station
Location: Belle Vernon, PA
Elevation: 996 ft
Nearby Weather Stations

Elev 996 ft 40.12 °N, 79.85 °W | Updated 10 seconds ago

Clear
Clear
27.6 °F
Feels Like 28 °F
N
0.0
Wind Variable Wind from WSW
Gusts 0.0 mph

Today
High -- | Low -- °F
--% Chance of Precip.
Yesterday
High -- | Low -- °F
Precip. -- in
Pressure 30.42 in
Visibility 10.0 miles
Clouds Clear
Windchill 28 °F
Dew Point 19 °F
Humidity 69%
Rainfall 0.00 in
Snow Depth Not available.
7:24 AM 5:42 PM
Waning Crescent, 8% visible
METAR KAGC 052353Z 27003KT 10SM CLR 01/M09 A3036 RMK AO2 SLP299 T00061094 10028 20006 53014
Pressure 30.42 in
Visibility 10.0 miles
Clouds Clear
Windchill 28 °F
Dew Point 19 °F
Humidity 69%
Rainfall 0.00 in
Snow Depth Not available.
7:24 AM 5:42 PM
Waning Crescent, 8% visible
METAR KAGC 052353Z 27003KT 10SM CLR 01/M09 A3036 RMK AO2 SLP299 T00061094 10028 20006 53014

10-Day Weather Forecast

Almanac

Astronomy

Feb. 05, 2016 Rise Set
Actual Time
Civil Twilight
Nautical Twilight
Astronomical Twilight
Moon
Length of Visible Light
Length of Day
Tomorrow will be .
, % of the Moon is Illuminated

Today's Extremes

State Highs State Lows

Community

WunderPhotos

Upload Photos

1,890,900 photos uploaded!

WunderBlog® & News

Nearby

Air Quality

  Air Quality AQ Index Pollutant
Not available.

Snow Depth

Station Depth Elevation

Earthquake Activity

City Distance Mag. Time & Date
Minimum magnitude displayed is 2.5.

Coastal Water Temperatures

Place Temperature

Stations

Nearby Weather Stations

Station Location Temp. Windchill Dew Point Humidity Wind Precip. Elev Updated Type
                   

Watches & Warnings

There are currently no watches in effect.